createdAt,value
2023-09-19T00:00:15.139Z,95526.05
2023-09-19T00:01:42.259Z,95524.27
2023-09-19T00:02:53.435Z,95516.49
2023-09-19T00:04:01.474Z,95516.42
2023-09-19T00:05:11.211Z,95513.92
2023-09-19T00:06:18.064Z,95517.36
2023-09-19T00:07:24.615Z,95516.11
2023-09-19T00:08:31.927Z,95512.20
2023-09-19T00:09:38.784Z,95507.51
2023-09-19T00:10:45.922Z,95506.19
2023-09-19T00:11:52.716Z,95507.77
2023-09-19T00:13:01.234Z,95505.63
2023-09-19T00:14:10.193Z,95506.59
2023-09-19T00:15:14.819Z,95502.64
2023-09-19T00:16:21.549Z,95503.88
2023-09-19T00:17:27.677Z,95506.39
2023-09-19T00:18:35.943Z,95505.67
2023-09-19T00:19:44.794Z,95499.33
2023-09-19T00:20:52.504Z,95502.48
2023-09-19T00:21:59.921Z,95498.55
2023-09-19T00:23:07.194Z,95491.06
2023-09-19T00:24:14.021Z,95487.58
2023-09-19T00:25:23.668Z,95487.77
2023-09-19T00:26:31.932Z,95490.40
2023-09-19T00:27:41.226Z,95486.44
2023-09-19T00:28:47.313Z,95488.14
2023-09-19T00:29:54.265Z,95487.76
2023-09-19T00:31:03.762Z,95492.00
2023-09-19T00:32:11.717Z,95495.27
2023-09-19T00:33:20.834Z,95496.59
2023-09-19T00:34:27.801Z,95495.49
2023-09-19T00:35:35.254Z,95492.30
2023-09-19T00:36:41.271Z,95491.94
2023-09-19T00:37:47.940Z,95487.95
2023-09-19T00:38:54.436Z,95488.98
2023-09-19T00:40:01.222Z,95486.05
2023-09-19T00:41:08.560Z,95486.55
2023-09-19T00:42:22.230Z,95488.98
2023-09-19T00:43:29.071Z,95485.73
2023-09-19T00:44:35.936Z,95475.84
2023-09-19T00:45:46.755Z,95474.95
2023-09-19T00:46:54.931Z,95475.61
2023-09-19T00:48:10.553Z,95476.64
2023-09-19T00:49:17.799Z,95481.37
2023-09-19T00:50:27.460Z,95481.24
2023-09-19T00:51:34.267Z,95479.93
2023-09-19T00:52:43.781Z,95478.31
2023-09-19T00:53:50.371Z,95478.13
2023-09-19T00:54:57.714Z,95478.64
2023-09-19T00:56:09.086Z,95478.73
2023-09-19T00:57:16.385Z,95480.79
2023-09-19T00:58:23.126Z,95477.98
2023-09-19T00:59:31.494Z,95482.20
2023-09-19T01:00:38.574Z,95482.16
2023-09-19T01:01:47.840Z,95481.86
2023-09-19T01:02:55.190Z,95478.95
2023-09-19T01:04:02.228Z,95479.71
2023-09-19T01:05:11.881Z,95478.40
2023-09-19T01:06:19.460Z,95483.12
2023-09-19T01:07:26.404Z,95482.35
2023-09-19T01:08:33.905Z,95474.65
2023-09-19T01:09:40.535Z,95469.80
2023-09-19T01:10:54.082Z,95480.23
2023-09-19T01:12:04.876Z,95482.78
2023-09-19T01:13:23.011Z,95482.48
2023-09-19T01:14:39.788Z,95479.51
2023-09-19T01:15:56.312Z,95478.41
2023-09-19T01:17:09.535Z,95475.65
2023-09-19T01:18:23.381Z,95479.97
2023-09-19T01:19:52.735Z,95477.39
2023-09-19T01:21:07.322Z,95472.78
2023-09-19T01:22:23.441Z,95473.85
2023-09-19T01:23:56.664Z,95479.26
2023-09-19T01:25:35.442Z,95478.17
2023-09-19T01:27:20.216Z,95473.39
2023-09-19T01:28:39.535Z,95472.92
2023-09-19T01:29:48.035Z,95473.89
2023-09-19T01:31:04.332Z,95468.88
2023-09-19T01:32:15.019Z,95468.48
2023-09-19T01:33:21.523Z,95476.42
2023-09-19T01:34:27.953Z,95472.66
2023-09-19T01:35:36.185Z,95474.79
2023-09-19T01:36:43.534Z,95470.09
2023-09-19T01:37:50.831Z,95466.06
2023-09-19T01:39:01.477Z,95471.85
2023-09-19T01:40:20.524Z,95472.13
2023-09-19T01:41:52.824Z,95470.70
2023-09-19T01:43:08.169Z,95464.56
2023-09-19T01:44:23.423Z,95457.80
2023-09-19T01:45:35.171Z,95454.46
2023-09-19T01:46:48.536Z,95456.10
2023-09-19T01:47:59.680Z,95452.82
2023-09-19T01:49:20.076Z,95460.64
2023-09-19T01:50:37.790Z,95461.56
2023-09-19T01:51:52.493Z,95462.24
2023-09-19T01:53:05.672Z,95461.20
2023-09-19T01:54:17.877Z,95456.80
2023-09-19T01:55:28.312Z,95456.36
2023-09-19T01:56:41.283Z,95459.73
2023-09-19T01:57:55.977Z,95457.13
2023-09-19T01:59:07.373Z,95457.55
2023-09-19T02:00:18.283Z,95453.19
2023-09-19T02:01:26.206Z,95456.81
2023-09-19T02:02:34.720Z,95457.84
2023-09-19T02:03:42.982Z,95462.27
2023-09-19T02:04:51.695Z,95467.34
2023-09-19T02:05:57.982Z,95469.86
2023-09-19T02:07:07.099Z,95468.26
2023-09-19T02:08:11.608Z,95469.48
2023-09-19T02:09:18.765Z,95469.73
2023-09-19T02:10:25.398Z,95470.19
2023-09-19T02:11:31.367Z,95468.30
2023-09-19T02:12:37.503Z,95468.60
2023-09-19T02:13:44.881Z,95472.52
2023-09-19T02:14:51.465Z,95476.02
2023-09-19T02:15:58.390Z,95477.18
2023-09-19T02:17:10.825Z,95478.23
2023-09-19T02:18:18.445Z,95478.33
2023-09-19T02:19:25.152Z,95474.31
2023-09-19T02:20:34.440Z,95474.41
2023-09-19T02:21:41.413Z,95474.09
2023-09-19T02:22:47.938Z,95473.25
2023-09-19T02:23:53.839Z,95468.39
2023-09-19T02:25:03.231Z,95467.53
2023-09-19T02:26:09.659Z,95470.30
2023-09-19T02:27:17.375Z,95467.85
2023-09-19T02:28:24.255Z,95468.06
2023-09-19T02:29:31.293Z,95465.66
2023-09-19T02:30:37.896Z,95465.36
2023-09-19T02:31:44.782Z,95468.59
2023-09-19T02:32:52.083Z,95465.52
2023-09-19T02:33:59.326Z,95464.56
2023-09-19T02:35:07.767Z,95463.05
2023-09-19T02:36:14.559Z,95468.16
2023-09-19T02:37:20.952Z,95466.81
2023-09-19T02:38:27.733Z,95470.66
2023-09-19T02:39:34.352Z,95466.55
2023-09-19T02:40:41.408Z,95469.58
2023-09-19T02:41:48.629Z,95469.55
2023-09-19T02:42:57.123Z,95473.48
2023-09-19T02:44:03.835Z,95470.45
2023-09-19T02:45:13.006Z,95469.42
2023-09-19T02:46:19.599Z,95474.25
2023-09-19T02:47:28.015Z,95474.61
2023-09-19T02:48:37.249Z,95471.55
2023-09-19T02:49:45.369Z,95470.84
2023-09-19T02:50:53.919Z,95469.45
2023-09-19T02:52:01.541Z,95471.38
2023-09-19T02:53:08.034Z,95463.34
2023-09-19T02:54:14.895Z,95458.41
2023-09-19T02:55:24.066Z,95454.16
2023-09-19T02:56:32.286Z,95455.38
2023-09-19T02:57:41.940Z,95450.22
2023-09-19T02:58:50.293Z,95449.48
2023-09-19T02:59:56.480Z,95446.77
2023-09-19T03:01:09.342Z,95442.30
2023-09-19T03:02:17.871Z,95435.09
2023-09-19T03:03:26.238Z,95433.59
2023-09-19T03:04:34.609Z,95429.89
2023-09-19T03:05:40.867Z,95430.73
2023-09-19T03:06:47.601Z,95427.89
2023-09-19T03:07:54.530Z,95425.34
2023-09-19T03:09:01.443Z,95425.31
2023-09-19T03:10:10.488Z,95425.25
2023-09-19T03:11:17.746Z,95417.56
2023-09-19T03:12:24.635Z,95415.48
2023-09-19T03:13:32.398Z,95415.95
2023-09-19T03:14:39.061Z,95411.64
2023-09-19T03:15:48.968Z,95414.52
2023-09-19T03:16:55.597Z,95407.37
2023-09-19T03:18:02.462Z,95409.30
2023-09-19T03:19:08.919Z,95405.95
2023-09-19T03:20:18.707Z,95405.63
2023-09-19T03:21:24.825Z,95401.16
2023-09-19T03:22:34.236Z,95394.33
2023-09-19T03:23:40.863Z,95388.52
2023-09-19T03:24:47.665Z,95389.96
2023-09-19T03:25:54.198Z,95383.30
2023-09-19T03:27:01.226Z,95379.77
2023-09-19T03:28:09.373Z,95384.46
2023-09-19T03:29:17.354Z,95381.10
2023-09-19T03:30:24.647Z,95386.52
2023-09-19T03:31:32.995Z,95384.45
2023-09-19T03:32:44.554Z,95387.90
2023-09-19T03:33:51.428Z,95382.89
2023-09-19T03:34:58.133Z,95382.42
2023-09-19T03:36:08.359Z,95381.39
2023-09-19T03:37:14.802Z,95381.34
2023-09-19T03:38:23.276Z,95386.06
2023-09-19T03:39:30.155Z,95387.36
2023-09-19T03:40:39.239Z,95388.80
2023-09-19T03:41:47.238Z,95391.87
2023-09-19T03:42:53.967Z,95390.10
2023-09-19T03:44:00.986Z,95389.87
2023-09-19T03:45:14.513Z,95392.26
2023-09-19T03:46:21.598Z,95393.52
2023-09-19T03:47:28.459Z,95399.86
2023-09-19T03:48:35.301Z,95397.40
2023-09-19T03:49:42.198Z,95395.23
2023-09-19T03:50:48.721Z,95393.42
2023-09-19T03:51:54.817Z,95393.11
2023-09-19T03:53:00.704Z,95397.83
2023-09-19T03:54:07.552Z,95397.80
2023-09-19T03:55:13.993Z,95400.09
2023-09-19T03:56:20.085Z,95400.89
2023-09-19T03:57:26.237Z,95395.92
2023-09-19T03:58:32.918Z,95388.11
2023-09-19T03:59:39.973Z,95386.13
2023-09-19T04:00:46.694Z,95388.00
2023-09-19T04:01:57.253Z,95388.14
2023-09-19T04:03:08.331Z,95387.11
2023-09-19T04:04:16.146Z,95386.65
2023-09-19T04:05:22.148Z,95386.29
2023-09-19T04:06:30.532Z,95385.35
2023-09-19T04:07:36.615Z,95381.46
2023-09-19T04:08:44.057Z,95384.09
2023-09-19T04:09:50.685Z,95383.73
2023-09-19T04:10:59.030Z,95382.41
2023-09-19T04:12:06.624Z,95381.77
2023-09-19T04:13:12.907Z,95380.74
2023-09-19T04:14:19.810Z,95379.75
2023-09-19T04:15:26.732Z,95375.79
2023-09-19T04:16:33.338Z,95373.20
2023-09-19T04:17:40.093Z,95373.92
2023-09-19T04:18:46.624Z,95372.64
2023-09-19T04:19:52.949Z,95370.05
2023-09-19T04:20:59.934Z,95373.30
2023-09-19T04:22:06.673Z,95371.00
2023-09-19T04:23:14.839Z,95370.16
2023-09-19T04:24:22.500Z,95363.94
2023-09-19T04:25:29.103Z,95358.55
2023-09-19T04:26:36.138Z,95354.47
2023-09-19T04:27:45.281Z,95356.59
2023-09-19T04:28:52.646Z,95360.62
2023-09-19T04:30:00.554Z,95360.26
2023-09-19T04:31:10.185Z,95354.70
2023-09-19T04:32:18.489Z,95356.64
2023-09-19T04:33:24.749Z,95347.98
2023-09-19T04:34:32.627Z,95342.94
2023-09-19T04:35:40.235Z,95341.80
2023-09-19T04:36:46.363Z,95344.59
2023-09-19T04:37:54.740Z,95345.15
2023-09-19T04:39:03.300Z,95349.11
2023-09-19T04:40:14.021Z,95347.55
2023-09-19T04:41:20.744Z,95348.96
2023-09-19T04:42:28.499Z,95350.75
2023-09-19T04:43:34.958Z,95353.86
2023-09-19T04:44:42.073Z,95359.15
2023-09-19T04:45:48.411Z,95361.52
2023-09-19T04:46:55.355Z,95362.55
2023-09-19T04:48:01.917Z,95356.48
2023-09-19T04:49:09.430Z,95351.95
2023-09-19T04:50:16.148Z,95353.73
2023-09-19T04:51:22.232Z,95352.45
2023-09-19T04:52:31.971Z,95353.66
2023-09-19T04:53:38.518Z,95356.91
2023-09-19T04:54:46.599Z,95355.14
2023-09-19T04:55:57.027Z,95353.90
2023-09-19T04:57:03.604Z,95359.36
2023-09-19T04:58:12.035Z,95352.90
2023-09-19T04:59:18.786Z,95350.38
2023-09-19T05:00:25.918Z,95346.67
2023-09-19T05:01:33.632Z,95351.86
2023-09-19T05:02:41.159Z,95346.55
2023-09-19T05:03:50.846Z,95342.08
2023-09-19T05:05:00.905Z,95336.36
2023-09-19T05:06:09.814Z,95335.33
2023-09-19T05:07:15.959Z,95333.66
2023-09-19T05:08:23.454Z,95325.02
2023-09-19T05:09:29.217Z,95322.48
2023-09-19T05:10:36.636Z,95325.69
2023-09-19T05:11:43.123Z,95326.00
2023-09-19T05:12:52.959Z,95325.89
2023-09-19T05:14:02.933Z,95321.17
2023-09-19T05:15:10.648Z,95314.91
2023-09-19T05:16:17.486Z,95312.70
2023-09-19T05:17:26.419Z,95318.52
2023-09-19T05:18:33.125Z,95320.77
2023-09-19T05:19:39.730Z,95325.14
2023-09-19T05:20:46.922Z,95320.86
2023-09-19T05:21:53.265Z,95321.66
2023-09-19T05:23:18.115Z,95319.73
2023-09-19T05:24:27.733Z,95318.36
2023-09-19T05:25:40.348Z,95320.83
2023-09-19T05:26:46.869Z,95324.80
2023-09-19T05:27:56.159Z,95327.80
2023-09-19T05:29:03.680Z,95327.77
2023-09-19T05:30:12.318Z,95327.52
2023-09-19T05:31:18.596Z,95328.40
2023-09-19T05:32:25.666Z,95329.69
2023-09-19T05:33:33.458Z,95329.39
2023-09-19T05:34:40.191Z,95329.77
2023-09-19T05:35:48.635Z,95329.19
2023-09-19T05:36:55.997Z,95330.52
2023-09-19T05:38:03.319Z,95325.25
2023-09-19T05:39:10.665Z,95322.98
2023-09-19T05:40:18.113Z,95320.41
2023-09-19T05:41:25.142Z,95318.05
2023-09-19T05:42:31.773Z,95319.69
2023-09-19T05:43:39.735Z,95321.55
2023-09-19T05:44:46.110Z,95318.15
2023-09-19T05:45:53.855Z,95316.00
2023-09-19T05:47:00.371Z,95310.77
2023-09-19T05:48:18.445Z,95310.69
2023-09-19T05:49:26.290Z,95316.58
2023-09-19T05:50:33.457Z,95318.45
2023-09-19T05:51:41.347Z,95315.84
2023-09-19T05:52:57.727Z,95312.86
2023-09-19T05:54:06.312Z,95318.27
2023-09-19T05:55:14.353Z,95318.66
2023-09-19T05:56:23.473Z,95316.69
2023-09-19T05:57:30.160Z,95317.99
2023-09-19T05:58:36.003Z,95319.23
2023-09-19T05:59:44.192Z,95316.66
2023-09-19T06:00:51.445Z,95314.20
2023-09-19T06:01:57.573Z,95307.61
2023-09-19T06:03:04.676Z,95308.69
2023-09-19T06:04:10.991Z,95307.66
2023-09-19T06:05:19.428Z,95308.59
2023-09-19T06:06:26.211Z,95312.63
2023-09-19T06:07:37.750Z,95312.04
2023-09-19T06:08:45.915Z,95312.74
2023-09-19T06:09:53.373Z,95308.52
2023-09-19T06:11:00.986Z,95308.66
2023-09-19T06:12:09.696Z,95304.66
2023-09-19T06:13:16.550Z,95300.22
2023-09-19T06:14:25.618Z,95298.10
2023-09-19T06:15:34.382Z,95298.21
2023-09-19T06:16:41.270Z,95302.28
2023-09-19T06:17:50.267Z,95304.58
2023-09-19T06:18:58.289Z,95300.27
2023-09-19T06:20:05.597Z,95300.67
2023-09-19T06:21:12.564Z,95303.21
2023-09-19T06:22:20.569Z,95305.78
2023-09-19T06:23:30.522Z,95311.20
2023-09-19T06:24:36.845Z,95310.91
2023-09-19T06:25:44.600Z,95313.20
2023-09-19T06:26:51.693Z,95315.17
2023-09-19T06:27:59.005Z,95317.65
2023-09-19T06:29:08.795Z,95310.91
2023-09-19T06:30:17.064Z,95306.85
2023-09-19T06:31:28.092Z,95306.02
2023-09-19T06:32:34.712Z,95306.75
2023-09-19T06:33:41.818Z,95304.82
2023-09-19T06:34:56.747Z,95302.84
2023-09-19T06:36:05.644Z,95306.30
2023-09-19T06:37:12.271Z,95308.44
2023-09-19T06:38:20.608Z,95305.70
2023-09-19T06:39:27.441Z,95304.74
2023-09-19T06:40:35.350Z,95297.21
2023-09-19T06:41:43.419Z,95295.81
2023-09-19T06:42:55.454Z,95289.45
2023-09-19T06:44:04.084Z,95289.67
2023-09-19T06:45:18.710Z,95288.70
2023-09-19T06:46:26.275Z,95284.09
2023-09-19T06:47:33.320Z,95288.44
2023-09-19T06:48:39.877Z,95283.05
2023-09-19T06:49:46.567Z,95282.38
2023-09-19T06:50:55.664Z,95279.37
2023-09-19T06:52:02.124Z,95280.08
2023-09-19T06:53:08.891Z,95281.59
2023-09-19T06:54:15.264Z,95282.67
2023-09-19T06:55:22.570Z,95280.30
2023-09-19T06:56:28.749Z,95280.75
2023-09-19T06:57:36.301Z,95278.00
2023-09-19T06:58:44.949Z,95278.05
2023-09-19T06:59:51.947Z,95281.27
2023-09-19T07:00:58.637Z,95281.73
2023-09-19T07:02:07.465Z,95280.98
2023-09-19T07:03:17.572Z,95282.13
2023-09-19T07:04:24.916Z,95277.35
2023-09-19T07:05:32.547Z,95282.02
2023-09-19T07:06:39.638Z,95288.02
2023-09-19T07:07:47.116Z,95290.80
2023-09-19T07:08:55.427Z,95289.92
2023-09-19T07:10:01.712Z,95292.05
2023-09-19T07:11:08.034Z,95293.06
2023-09-19T07:12:15.252Z,95289.54
2023-09-19T07:13:21.742Z,95285.94
2023-09-19T07:14:29.640Z,95292.73
2023-09-19T07:15:41.371Z,95291.36
2023-09-19T07:16:48.848Z,95292.39
2023-09-19T07:17:58.020Z,95289.26
2023-09-19T07:19:05.472Z,95288.12
2023-09-19T07:20:17.567Z,95287.16
2023-09-19T07:21:23.857Z,95278.91
2023-09-19T07:22:31.145Z,95280.88
2023-09-19T07:23:39.703Z,95276.95
2023-09-19T07:24:46.793Z,95275.09
2023-09-19T07:25:58.260Z,95276.14
2023-09-19T07:27:06.592Z,95279.27
2023-09-19T07:28:13.163Z,95278.98
2023-09-19T07:29:19.308Z,95283.00
2023-09-19T07:30:26.703Z,95281.86
2023-09-19T07:31:33.272Z,95282.83
2023-09-19T07:32:42.473Z,95282.77
2023-09-19T07:33:48.601Z,95284.14
2023-09-19T07:34:57.086Z,95283.94
2023-09-19T07:36:03.709Z,95285.88
2023-09-19T07:37:10.911Z,95286.34
2023-09-19T07:38:17.987Z,95286.40
2023-09-19T07:39:24.196Z,95283.05
2023-09-19T07:40:31.664Z,95288.73
2023-09-19T07:41:38.521Z,95283.88
2023-09-19T07:42:45.501Z,95287.80
2023-09-19T07:43:52.209Z,95284.92
2023-09-19T07:44:58.292Z,95283.27
2023-09-19T07:46:10.445Z,95281.53
2023-09-19T07:47:16.984Z,95284.07
2023-09-19T07:48:23.361Z,95285.89
2023-09-19T07:49:30.236Z,95290.04
2023-09-19T07:50:38.072Z,95291.98
2023-09-19T07:51:47.865Z,95291.71
2023-09-19T07:52:55.919Z,95294.27
2023-09-19T07:54:02.381Z,95292.41
2023-09-19T07:55:10.968Z,95292.38
2023-09-19T07:56:20.967Z,95294.60
2023-09-19T07:57:27.700Z,95298.50
2023-09-19T07:58:36.354Z,95297.02
2023-09-19T07:59:43.227Z,95294.27
2023-09-19T08:00:49.794Z,95297.30
2023-09-19T08:01:56.374Z,95297.11
2023-09-19T08:03:15.704Z,95295.98
2023-09-19T08:04:27.745Z,95296.26
2023-09-19T08:05:35.164Z,95290.98
2023-09-19T08:06:41.157Z,95294.20
2023-09-19T08:07:49.993Z,95291.86
2023-09-19T08:08:57.893Z,95288.21
2023-09-19T08:10:04.235Z,95288.77
2023-09-19T08:11:14.220Z,95288.55
2023-09-19T08:12:25.593Z,95290.04
2023-09-19T08:13:34.111Z,95290.41
2023-09-19T08:14:43.788Z,95288.09
2023-09-19T08:15:50.364Z,95284.56
2023-09-19T08:17:00.213Z,95279.73
2023-09-19T08:18:09.060Z,95280.98
2023-09-19T08:19:13.498Z,95283.09
2023-09-19T08:20:20.533Z,95282.95
2023-09-19T08:21:30.151Z,95285.06
2023-09-19T08:22:36.863Z,95281.31
2023-09-19T08:23:43.455Z,95277.70
2023-09-19T08:24:50.202Z,95280.78
2023-09-19T08:26:03.648Z,95280.64
2023-09-19T08:27:11.753Z,95279.90
2023-09-19T08:28:25.642Z,95279.16
2023-09-19T08:29:32.689Z,95275.05
2023-09-19T08:30:40.437Z,95273.70
2023-09-19T08:31:50.976Z,95277.37
2023-09-19T08:33:02.132Z,95277.95
2023-09-19T08:34:08.834Z,95274.31
2023-09-19T08:35:16.055Z,95275.35
2023-09-19T08:36:22.244Z,95271.52
2023-09-19T08:37:28.639Z,95276.93
2023-09-19T08:38:37.336Z,95273.74
2023-09-19T08:39:45.645Z,95275.48
2023-09-19T08:40:52.548Z,95272.91
2023-09-19T08:42:02.705Z,95273.79
2023-09-19T08:43:09.632Z,95274.90
2023-09-19T08:44:16.033Z,95275.45
2023-09-19T08:45:28.905Z,95272.67
2023-09-19T08:46:40.587Z,95270.11
2023-09-19T08:47:56.580Z,95274.63
2023-09-19T08:49:10.446Z,95269.60
2023-09-19T08:50:26.913Z,95271.82
2023-09-19T08:51:47.572Z,95269.57
2023-09-19T08:52:56.676Z,95268.91
2023-09-19T08:54:08.484Z,95272.88
2023-09-19T08:55:22.827Z,95268.64
2023-09-19T08:56:30.453Z,95272.11
2023-09-19T08:57:44.354Z,95267.63
2023-09-19T08:58:55.781Z,95268.23
2023-09-19T09:00:11.004Z,95266.14
2023-09-19T09:01:25.935Z,95259.26
2023-09-19T09:02:35.338Z,95257.45
2023-09-19T09:03:49.417Z,95258.27
2023-09-19T09:04:58.709Z,95256.52
2023-09-19T09:06:03.510Z,95257.33
2023-09-19T09:07:13.981Z,95257.34
2023-09-19T09:08:23.648Z,95257.20
2023-09-19T09:09:32.041Z,95253.90
2023-09-19T09:10:39.999Z,95256.77
2023-09-19T09:11:47.274Z,95252.14
2023-09-19T09:12:56.362Z,95254.70
2023-09-19T09:14:03.563Z,95248.83
2023-09-19T09:15:14.161Z,95249.92
2023-09-19T09:16:20.867Z,95247.69
2023-09-19T09:17:28.073Z,95247.11
2023-09-19T09:18:35.424Z,95245.64
2023-09-19T09:19:43.691Z,95248.23
2023-09-19T09:20:50.242Z,95248.06
2023-09-19T09:22:06.821Z,95250.45
2023-09-19T09:23:15.216Z,95251.14
2023-09-19T09:24:32.317Z,95248.52
2023-09-19T09:26:04.117Z,95250.33
2023-09-19T09:27:14.265Z,95250.91
2023-09-19T09:28:24.759Z,95249.14
2023-09-19T09:29:45.589Z,95253.66
2023-09-19T09:30:51.742Z,95251.12
2023-09-19T09:32:13.833Z,95252.80
2023-09-19T09:33:20.551Z,95253.88
2023-09-19T09:34:36.093Z,95252.28
2023-09-19T09:35:54.666Z,95251.34
2023-09-19T09:37:00.771Z,95252.60
2023-09-19T09:38:10.205Z,95250.18
2023-09-19T09:39:20.813Z,95253.39
2023-09-19T09:40:37.503Z,95251.33
2023-09-19T09:41:44.990Z,95254.16
2023-09-19T09:42:53.977Z,95254.63
2023-09-19T09:44:21.441Z,95254.98
2023-09-19T09:45:39.254Z,95251.29
2023-09-19T09:46:53.297Z,95249.46
2023-09-19T09:48:04.618Z,95252.96
2023-09-19T09:49:35.429Z,95254.56
2023-09-19T09:50:49.745Z,95257.19
2023-09-19T09:52:12.012Z,95256.31
2023-09-19T09:53:29.291Z,95261.38
2023-09-19T09:54:40.003Z,95260.33
2023-09-19T09:56:08.176Z,95261.98
2023-09-19T09:57:14.923Z,95259.48
2023-09-19T09:58:30.592Z,95260.60
2023-09-19T09:59:51.228Z,95261.17
2023-09-19T10:01:04.869Z,95262.77
2023-09-19T10:02:15.050Z,95263.66
2023-09-19T10:03:32.932Z,95263.95
2023-09-19T10:04:46.171Z,95267.38
2023-09-19T10:05:58.565Z,95264.58
2023-09-19T10:07:12.748Z,95265.27
2023-09-19T10:08:20.411Z,95261.75
2023-09-19T10:09:30.558Z,95265.27
2023-09-19T10:10:42.426Z,95265.59
2023-09-19T10:12:01.031Z,95268.70
2023-09-19T10:13:09.225Z,95269.89
2023-09-19T10:14:21.662Z,95268.93
2023-09-19T10:15:34.546Z,95270.27
2023-09-19T10:16:48.384Z,95272.19
2023-09-19T10:17:57.688Z,95276.10
2023-09-19T10:19:12.188Z,95271.65
2023-09-19T10:20:34.661Z,95270.69
2023-09-19T10:21:44.774Z,95273.38
2023-09-19T10:23:01.020Z,95274.67
2023-09-19T10:24:10.296Z,95274.20
2023-09-19T10:25:22.853Z,95275.57
2023-09-19T10:26:32.891Z,95277.19
2023-09-19T10:27:41.174Z,95275.59
2023-09-19T10:28:51.498Z,95277.05
2023-09-19T10:30:01.070Z,95280.69
2023-09-19T10:31:11.779Z,95276.98
2023-09-19T10:32:20.834Z,95272.27
2023-09-19T10:33:37.357Z,95270.91
2023-09-19T10:34:46.436Z,95269.61
2023-09-19T10:35:57.137Z,95270.83
2023-09-19T10:37:07.130Z,95268.08
2023-09-19T10:38:19.533Z,95272.19
2023-09-19T10:39:26.932Z,95265.26
2023-09-19T10:40:34.529Z,95264.70
2023-09-19T10:41:41.923Z,95265.53
2023-09-19T10:42:50.002Z,95262.61
2023-09-19T10:44:01.199Z,95256.45
2023-09-19T10:45:14.647Z,95256.19
2023-09-19T10:46:20.993Z,95254.55
2023-09-19T10:47:27.309Z,95253.30
2023-09-19T10:48:34.562Z,95253.59
2023-09-19T10:49:48.181Z,95253.44
2023-09-19T10:51:05.830Z,95253.16
2023-09-19T10:52:16.601Z,95251.64
2023-09-19T10:53:24.186Z,95253.07
2023-09-19T10:54:38.214Z,95256.35
2023-09-19T10:55:57.036Z,95252.59
2023-09-19T10:57:08.274Z,95256.61
2023-09-19T10:58:25.482Z,95254.70
2023-09-19T10:59:36.497Z,95254.13
2023-09-19T11:01:18.542Z,95253.33
2023-09-19T11:02:26.355Z,95254.16
2023-09-19T11:03:34.580Z,95252.27
2023-09-19T11:04:44.367Z,95255.27
2023-09-19T11:06:21.506Z,95253.23
2023-09-19T11:07:30.667Z,95254.31
2023-09-19T11:09:16.095Z,95253.00
2023-09-19T11:10:50.093Z,95252.73
2023-09-19T11:11:58.518Z,95254.65
2023-09-19T11:13:35.641Z,95252.55
2023-09-19T11:14:46.051Z,95255.73
2023-09-19T11:16:21.372Z,95257.69
2023-09-19T11:17:46.999Z,95263.16
2023-09-19T11:18:57.144Z,95266.26
2023-09-19T11:20:37.285Z,95267.30
2023-09-19T11:21:56.988Z,95265.08
2023-09-19T11:23:24.656Z,95268.64
2023-09-19T11:24:37.631Z,95272.52
2023-09-19T11:25:51.245Z,95272.53
2023-09-19T11:27:19.311Z,95271.90
2023-09-19T11:28:38.580Z,95277.70
2023-09-19T11:29:44.839Z,95275.53
2023-09-19T11:30:55.540Z,95275.81
2023-09-19T11:32:01.976Z,95270.48
2023-09-19T11:33:22.573Z,95273.20
2023-09-19T11:34:52.148Z,95275.79
2023-09-19T11:36:07.067Z,95268.59
2023-09-19T11:37:53.978Z,95270.08
2023-09-19T11:39:10.619Z,95274.78
2023-09-19T11:40:18.542Z,95271.36
2023-09-19T11:41:43.238Z,95272.25
2023-09-19T11:42:58.375Z,95274.11
2023-09-19T11:44:39.718Z,95279.13
2023-09-19T11:46:07.288Z,95280.80
2023-09-19T11:47:14.951Z,95277.86
2023-09-19T11:48:26.694Z,95278.25
2023-09-19T11:49:35.195Z,95279.04
2023-09-19T11:50:45.412Z,95275.33
2023-09-19T11:51:53.935Z,95277.63
2023-09-19T11:52:58.764Z,95279.03
2023-09-19T11:54:18.993Z,95279.96
2023-09-19T11:55:32.138Z,95282.32
2023-09-19T11:56:45.581Z,95278.23
2023-09-19T11:57:56.972Z,95278.73
2023-09-19T11:59:04.823Z,95282.96
2023-09-19T12:00:20.224Z,95281.16
2023-09-19T12:01:31.354Z,95291.96
2023-09-19T12:02:45.534Z,95289.89
2023-09-19T12:03:58.334Z,95287.00
2023-09-19T12:05:05.292Z,95290.98
2023-09-19T12:06:15.928Z,95292.59
2023-09-19T12:07:23.566Z,95293.02
2023-09-19T12:08:31.985Z,95291.47
2023-09-19T12:09:39.000Z,95296.41
2023-09-19T12:10:57.436Z,95294.10
2023-09-19T12:12:04.093Z,95293.41
2023-09-19T12:13:11.600Z,95293.83
2023-09-19T12:14:28.638Z,95298.10
2023-09-19T12:15:40.104Z,95294.71
2023-09-19T12:16:56.981Z,95294.86
2023-09-19T12:18:05.406Z,95296.58
2023-09-19T12:19:25.183Z,95300.30
2023-09-19T12:22:19.141Z,95301.54
2023-09-19T12:23:27.041Z,95309.27
2023-09-19T12:24:34.146Z,95307.79
2023-09-19T12:25:48.712Z,95306.67
2023-09-19T12:26:58.277Z,95313.16
2023-09-19T12:28:05.462Z,95313.87
2023-09-19T12:29:16.785Z,95314.55
2023-09-19T12:30:28.746Z,95312.83
2023-09-19T12:31:38.610Z,95313.79
2023-09-19T12:32:45.500Z,95318.20
2023-09-19T12:33:56.548Z,95318.52
2023-09-19T12:35:08.977Z,95318.84
2023-09-19T12:36:31.810Z,95319.89
2023-09-19T12:37:38.551Z,95317.48
2023-09-19T12:38:51.148Z,95317.63
2023-09-19T12:40:18.486Z,95321.86
2023-09-19T12:41:27.135Z,95317.68
2023-09-19T12:42:33.872Z,95318.84
2023-09-19T12:43:43.657Z,95322.70
2023-09-19T12:44:56.561Z,95322.75
2023-09-19T12:46:04.155Z,95318.47
2023-09-19T12:47:17.418Z,95324.85
2023-09-19T12:48:33.141Z,95324.91
2023-09-19T12:50:18.337Z,95323.60
2023-09-19T12:51:27.947Z,95324.66
2023-09-19T12:52:39.985Z,95326.31
2023-09-19T12:53:58.494Z,95332.56
2023-09-19T12:55:08.136Z,95330.61
2023-09-19T12:56:17.028Z,95333.91
2023-09-19T12:57:28.286Z,95334.20
2023-09-19T12:58:36.304Z,95336.52
2023-09-19T12:59:43.933Z,95333.84
2023-09-19T13:00:53.472Z,95331.75
2023-09-19T13:02:15.219Z,95336.29
2023-09-19T13:03:36.223Z,95340.34
2023-09-19T13:04:53.492Z,95341.61
2023-09-19T13:06:05.119Z,95339.23
2023-09-19T13:07:45.246Z,95343.44
2023-09-19T13:09:09.552Z,95345.41
2023-09-19T13:10:17.489Z,95348.89
2023-09-19T13:11:23.681Z,95345.66
2023-09-19T13:12:40.047Z,95349.59
2023-09-19T13:13:51.158Z,95347.94
2023-09-19T13:15:26.213Z,95353.41
2023-09-19T13:16:33.315Z,95354.04
2023-09-19T13:17:51.366Z,95354.41
2023-09-19T13:18:59.198Z,95359.32
2023-09-19T13:20:08.740Z,95356.85
2023-09-19T13:21:39.115Z,95358.98
2023-09-19T13:22:50.290Z,95359.70
2023-09-19T13:24:17.497Z,95362.14
2023-09-19T13:25:25.228Z,95363.09
2023-09-19T13:26:32.276Z,95365.05
2023-09-19T13:27:38.420Z,95362.63
2023-09-19T13:28:45.463Z,95361.80
2023-09-19T13:29:51.959Z,95360.77
2023-09-19T13:30:58.554Z,95359.56
2023-09-19T13:32:06.736Z,95357.02
2023-09-19T13:33:22.472Z,95356.92
2023-09-19T13:34:30.605Z,95359.45
2023-09-19T13:35:37.889Z,95358.42
2023-09-19T13:36:44.688Z,95359.05
2023-09-19T13:37:53.500Z,95360.65
2023-09-19T13:38:57.716Z,95357.35
2023-09-19T13:40:06.501Z,95357.52
2023-09-19T13:41:15.357Z,95354.47
2023-09-19T13:42:22.795Z,95357.55
2023-09-19T13:43:30.137Z,95353.04
2023-09-19T13:44:36.503Z,95352.23
2023-09-19T13:45:43.921Z,95349.70
2023-09-19T13:46:50.060Z,95350.98
2023-09-19T13:47:57.663Z,95343.84